createdAt,value
2019-06-01T00:02:25.233Z,44.45
2019-06-01T00:07:28.687Z,44.51
2019-06-01T00:12:32.150Z,44.46
2019-06-01T00:17:35.616Z,44.52
2019-06-01T00:22:39.080Z,44.50
2019-06-01T00:27:42.574Z,44.52
2019-06-01T00:32:47.203Z,44.54
2019-06-01T00:37:51.815Z,44.53
2019-06-01T00:42:55.333Z,44.50
2019-06-01T00:47:58.818Z,44.50
2019-06-01T00:53:02.296Z,44.53
2019-06-01T00:58:05.775Z,44.55
2019-06-01T01:03:09.272Z,44.52
2019-06-01T01:08:12.761Z,44.54
2019-06-01T01:13:17.935Z,44.51
2019-06-01T01:18:21.392Z,44.59
2019-06-01T01:23:24.854Z,44.64
2019-06-01T01:28:28.330Z,44.62
2019-06-01T01:33:31.791Z,44.64
2019-06-01T01:38:35.256Z,44.68
2019-06-01T01:43:38.718Z,44.63
2019-06-01T01:48:42.183Z,44.60
2019-06-01T01:53:45.645Z,44.68
2019-06-01T01:58:50.253Z,44.65
2019-06-01T02:03:55.362Z,44.58
2019-06-01T02:08:59.393Z,44.62
2019-06-01T02:14:03.234Z,44.56
2019-06-01T02:19:06.725Z,44.62
2019-06-01T02:24:10.188Z,44.64
2019-06-01T02:29:13.678Z,44.59
2019-06-01T02:34:17.160Z,44.66
2019-06-01T02:39:20.655Z,44.51
2019-06-01T02:44:24.157Z,44.38
2019-06-01T02:49:27.599Z,44.26
2019-06-01T02:54:31.074Z,44.12
2019-06-01T02:59:34.551Z,43.93
2019-06-01T03:04:38.017Z,43.83
2019-06-01T03:09:42.134Z,43.68
2019-06-01T03:14:47.199Z,43.56
2019-06-01T03:19:52.577Z,43.48
2019-06-01T03:24:59.786Z,43.36
2019-06-01T03:30:12.231Z,43.28
2019-06-01T03:35:14.453Z,43.20
2019-06-01T03:40:23.806Z,43.15
2019-06-01T03:45:23.106Z,43.09
2019-06-01T03:50:26.576Z,43.08
2019-06-01T03:55:30.043Z,43.02
2019-06-01T04:00:33.500Z,42.99
2019-06-01T04:05:36.970Z,42.95
2019-06-01T04:10:40.432Z,42.92
2019-06-01T04:15:43.901Z,42.86
2019-06-01T04:20:47.379Z,42.79
2019-06-01T04:25:50.853Z,42.76
2019-06-01T04:30:54.318Z,42.69
2019-06-01T04:35:57.776Z,42.61
2019-06-01T04:41:01.251Z,42.55
2019-06-01T04:46:06.051Z,42.48
2019-06-01T04:51:11.605Z,42.44
2019-06-01T04:56:15.253Z,42.38
2019-06-01T05:01:18.829Z,42.29
2019-06-01T05:06:22.289Z,42.22
2019-06-01T05:11:25.752Z,42.18
2019-06-01T05:16:29.214Z,42.15
2019-06-01T05:21:32.691Z,42.05
2019-06-01T05:26:36.153Z,42.12
2019-06-01T05:31:39.613Z,42.14
2019-06-01T11:14:54.888Z,41.63
2019-06-01T11:19:58.355Z,41.48
2019-06-01T11:25:01.883Z,41.77
2019-06-01T11:30:09.298Z,41.91
2019-06-01T11:35:13.402Z,42.18
2019-06-01T11:40:16.935Z,42.33
2019-06-01T11:45:20.475Z,42.40
2019-06-01T11:50:23.973Z,42.23
2019-06-01T11:55:27.498Z,42.39
2019-06-01T12:00:31.356Z,42.34
2019-06-01T12:05:35.762Z,42.50
2019-06-01T12:10:39.313Z,42.58
2019-06-01T12:15:42.845Z,42.59
2019-06-01T12:20:47.338Z,42.57
2019-06-01T12:25:50.876Z,42.11
2019-06-01T12:30:54.346Z,42.09
2019-06-01T12:35:58.209Z,42.07
2019-06-01T12:41:01.636Z,42.04
2019-06-01T12:46:07.754Z,41.97
2019-06-01T12:56:28.465Z,42.44
2019-06-01T13:01:31.926Z,42.09
2019-06-01T13:09:20.322Z,41.87
2019-06-01T14:07:41.625Z,41.80
2019-06-01T14:12:45.315Z,41.84
2019-06-01T14:17:50.189Z,41.87
2019-06-01T14:22:54.123Z,41.99
2019-06-01T14:27:57.593Z,41.95
2019-06-01T14:33:01.057Z,41.91
2019-06-01T14:38:04.521Z,41.92
2019-06-01T14:43:07.982Z,42.06
2019-06-01T14:48:11.445Z,41.72
2019-06-01T14:53:14.904Z,41.94
2019-06-01T14:58:18.361Z,42.09
2019-06-01T15:03:21.821Z,42.16
2019-06-01T15:08:25.299Z,42.14
2019-06-01T15:13:28.760Z,42.22
2019-06-01T15:18:32.225Z,42.25
2019-06-01T15:23:35.695Z,42.19
2019-06-01T15:28:39.164Z,42.13
2019-06-01T15:33:42.699Z,42.22
2019-06-01T15:38:46.157Z,42.69
2019-06-01T15:43:50.825Z,42.80
2019-06-01T15:48:56.002Z,42.74
2019-06-01T15:53:59.618Z,42.77
2019-06-01T15:59:03.149Z,42.71
2019-06-01T16:04:06.610Z,42.71
2019-06-01T16:09:10.073Z,42.85
2019-06-01T16:14:13.536Z,42.92
2019-06-01T16:19:17.001Z,43.03
2019-06-01T16:24:20.459Z,43.04
2019-06-01T16:29:23.921Z,42.95
2019-06-01T16:34:27.383Z,43.02
2019-06-01T16:39:30.841Z,43.07
2019-06-01T16:44:34.300Z,42.96
2019-06-01T16:49:37.765Z,43.03
2019-06-01T16:54:41.223Z,43.03
2019-06-01T16:59:44.692Z,42.92
2019-06-01T17:04:48.144Z,43.02
2019-06-01T17:09:51.610Z,42.98
2019-06-01T17:14:55.073Z,42.97
2019-06-01T17:19:59.020Z,42.97
2019-06-01T17:25:03.679Z,42.91
2019-06-01T17:30:11.532Z,42.90
2019-06-01T17:35:12.746Z,42.85
2019-06-01T17:40:16.211Z,42.91
2019-06-01T17:45:20.006Z,42.88
2019-06-01T17:50:24.100Z,42.86
2019-06-01T17:55:32.657Z,42.91
2019-06-01T18:00:36.429Z,43.15
2019-06-01T18:05:39.908Z,43.82
2019-06-01T18:10:53.845Z,44.30
2019-06-01T18:15:50.066Z,44.65
2019-06-01T18:20:53.856Z,44.76
2019-06-01T18:25:57.290Z,44.86
2019-06-01T18:31:00.829Z,45.10
2019-06-01T18:36:05.418Z,45.28
2019-06-01T18:41:16.152Z,45.53
2019-06-01T18:46:14.491Z,45.38
2019-06-01T18:51:17.953Z,45.04
2019-06-01T18:56:21.448Z,44.59
2019-06-01T19:01:24.963Z,44.61
2019-06-01T19:06:28.424Z,44.60
2019-06-01T19:11:35.986Z,44.41
2019-06-01T19:16:37.073Z,44.45
2019-06-01T19:21:40.532Z,44.50
2019-06-01T19:26:45.564Z,44.61
2019-06-01T19:31:49.025Z,44.54
2019-06-01T19:36:54.626Z,44.35
2019-06-01T19:41:58.085Z,43.94
2019-06-01T19:47:01.551Z,44.02
2019-06-01T19:52:05.350Z,44.18
2019-06-01T19:57:09.790Z,43.92
2019-06-01T20:02:31.099Z,44.07
2019-06-01T20:07:21.290Z,43.97
2019-06-01T20:12:24.851Z,43.61
2019-06-01T20:17:28.338Z,43.91
2019-06-01T20:22:31.815Z,44.01
2019-06-01T20:27:35.296Z,43.85
2019-06-01T20:32:38.798Z,43.90
2019-06-01T20:37:42.292Z,44.03
2019-06-01T20:42:45.767Z,43.92
2019-06-01T20:47:49.252Z,43.75
2019-06-01T20:52:52.819Z,43.83
2019-06-01T20:57:56.305Z,43.82
2019-06-01T21:02:59.800Z,43.70
2019-06-01T21:08:03.284Z,43.72
2019-06-01T21:13:07.980Z,43.66
2019-06-01T21:18:11.709Z,43.64
2019-06-01T21:23:15.178Z,43.70
2019-06-01T21:28:20.450Z,43.73
2019-06-01T21:33:27.108Z,43.66
2019-06-01T21:38:30.129Z,43.65
2019-06-01T21:43:35.508Z,43.75
2019-06-01T21:48:38.815Z,43.74
2019-06-01T21:53:42.299Z,43.57
2019-06-01T21:58:45.789Z,43.57
2019-06-01T22:03:49.282Z,43.54
2019-06-01T22:08:53.122Z,43.59
2019-06-01T22:13:56.615Z,43.63
2019-06-01T22:19:00.097Z,43.38
2019-06-01T22:24:03.578Z,43.47
2019-06-01T22:29:07.062Z,43.35
2019-06-01T22:34:10.520Z,43.43
2019-06-01T22:39:13.987Z,43.22
2019-06-01T22:44:17.453Z,43.15
2019-06-01T22:49:20.908Z,42.97
2019-06-01T22:54:25.123Z,42.91
2019-06-01T22:59:28.780Z,42.93
2019-06-01T23:04:32.322Z,42.94
2019-06-01T23:09:36.023Z,43.00
2019-06-01T23:14:39.482Z,42.91
2019-06-01T23:19:42.944Z,42.94
2019-06-01T23:24:46.407Z,42.94
2019-06-01T23:29:49.870Z,42.97
2019-06-01T23:34:53.332Z,42.99
2019-06-01T23:39:56.790Z,42.85
2019-06-01T23:45:00.257Z,42.76
2019-06-01T23:50:04.555Z,42.84
2019-06-01T23:55:08.187Z,42.69
